Time;durP1;ratioP1;P1;durP2;ratioP2;P2;SDS_P1;SDS_P2;PMS_P1;PMS_P2;Temp;Humidity;BMP_temperature;BMP_pressure;BME280_temperature;BME280_humidity;BME280_pressure;Samples;Min_cycle;Max_cycle;Signal;HPM_P1;HPM_P2
2021/06/18 00:00:01;;;;;;;;;;;20.80;55.90;;;;;;491310;241;1077;-44
2021/06/18 00:02:02;;;;;;;;;;;20.80;56.00;;;;;;491652;241;1173;-44
2021/06/18 00:04:04;;;;;;;;;;;20.70;56.00;;;;;;491560;241;1081;-44
2021/06/18 00:06:05;;;;;;;;;;;20.70;56.00;;;;;;491248;241;1311;-44
2021/06/18 00:08:06;;;;;;;;;;;20.80;56.00;;;;;;491302;241;1126;-44
2021/06/18 00:10:07;;;;;;;;;;;20.80;55.90;;;;;;491376;241;1162;-44
2021/06/18 00:12:09;;;;;;;;;;;20.80;55.90;;;;;;491207;241;1176;-44
2021/06/18 00:14:10;;;;;;;;;;;20.80;55.90;;;;;;491441;241;1320;-44
2021/06/18 00:16:12;;;;;;;;;;;20.80;56.00;;;;;;491193;241;2172;-44
2021/06/18 00:18:14;;;;;;;;;;;20.80;56.00;;;;;;491465;241;1130;-44
2021/06/18 00:20:14;;;;;;;;;;;20.80;56.00;;;;;;491248;241;1668;-44
2021/06/18 00:22:15;;;;;;;;;;;20.80;55.90;;;;;;491340;241;1187;-44
2021/06/18 00:24:17;;;;;;;;;;;20.80;55.90;;;;;;491433;241;1103;-44
2021/06/18 00:26:18;;;;;;;;;;;20.80;55.90;;;;;;491567;241;1360;-44
2021/06/18 00:28:19;;;;;;;;;;;20.70;56.00;;;;;;491555;241;1053;-44
2021/06/18 00:30:21;;;;;;;;;;;20.80;56.00;;;;;;491368;241;1158;-44
2021/06/18 00:32:22;;;;;;;;;;;20.80;56.00;;;;;;491228;241;1198;-44
2021/06/18 00:34:23;;;;;;;;;;;20.80;56.00;;;;;;491267;241;1097;-44
2021/06/18 00:36:25;;;;;;;;;;;20.80;56.00;;;;;;491707;241;2228;-44
2021/06/18 00:38:26;;;;;;;;;;;20.80;55.90;;;;;;491478;241;1086;-44
2021/06/18 00:40:27;;;;;;;;;;;20.80;55.90;;;;;;491364;241;1401;-45
2021/06/18 00:42:29;;;;;;;;;;;20.80;56.00;;;;;;491693;241;1145;-44
2021/06/18 00:44:30;;;;;;;;;;;20.70;56.00;;;;;;491758;241;1062;-44
2021/06/18 00:46:31;;;;;;;;;;;20.80;56.00;;;;;;491229;241;1469;-44
2021/06/18 00:48:33;;;;;;;;;;;20.80;56.00;;;;;;491484;241;1096;-44
2021/06/18 00:50:34;;;;;;;;;;;20.80;56.00;;;;;;491488;241;1070;-44
2021/06/18 00:52:36;;;;;;;;;;;20.80;56.00;;;;;;491318;241;1169;-44
2021/06/18 00:54:39;;;;;;;;;;;20.80;55.90;;;;;;491320;241;1201;-44
2021/06/18 00:56:38;;;;;;;;;;;20.80;55.90;;;;;;491680;241;2201;-44
2021/06/18 00:58:40;;;;;;;;;;;20.80;56.00;;;;;;491376;241;1170;-44
2021/06/18 01:00:41;;;;;;;;;;;20.70;56.00;;;;;;491689;241;1339;-44
2021/06/18 01:02:42;;;;;;;;;;;20.80;56.00;;;;;;491664;241;1195;-44
2021/06/18 01:04:43;;;;;;;;;;;20.80;56.00;;;;;;491768;241;1102;-44
2021/06/18 01:06:45;;;;;;;;;;;20.80;56.00;;;;;;491469;241;1253;-44
2021/06/18 01:08:46;;;;;;;;;;;20.80;56.00;;;;;;491597;241;1048;-44
2021/06/18 01:10:47;;;;;;;;;;;20.80;56.00;;;;;;491386;241;1208;-44
2021/06/18 01:12:49;;;;;;;;;;;20.80;56.00;;;;;;491575;241;1172;-44
2021/06/18 01:14:50;;;;;;;;;;;20.80;55.90;;;;;;491759;241;1059;-44
2021/06/18 01:16:51;;;;;;;;;;;20.80;55.90;;;;;;491329;241;2188;-45
2021/06/18 01:18:53;;;;;;;;;;;20.80;56.00;;;;;;491430;241;1001;-44
2021/06/18 01:20:54;;;;;;;;;;;20.80;56.00;;;;;;491731;241;1227;-44
2021/06/18 01:22:55;;;;;;;;;;;20.80;56.00;;;;;;491314;241;1202;-44
2021/06/18 01:24:57;;;;;;;;;;;20.70;56.00;;;;;;491517;241;1151;-45
2021/06/18 01:26:58;;;;;;;;;;;20.80;56.00;;;;;;491698;241;1192;-44
2021/06/18 01:28:59;;;;;;;;;;;20.80;55.90;;;;;;491298;241;1044;-44
2021/06/18 01:31:01;;;;;;;;;;;20.80;55.90;;;;;;491625;241;1213;-44
2021/06/18 01:33:02;;;;;;;;;;;20.80;56.00;;;;;;491736;241;1091;-44
2021/06/18 01:35:03;;;;;;;;;;;20.80;56.00;;;;;;491782;241;1136;-44
2021/06/18 01:37:05;;;;;;;;;;;20.80;56.00;;;;;;491545;241;2148;-44
2021/06/18 01:39:06;;;;;;;;;;;20.70;56.00;;;;;;491503;241;1086;-44
2021/06/18 01:41:08;;;;;;;;;;;20.70;56.00;;;;;;491418;241;1154;-44
2021/06/18 01:43:09;;;;;;;;;;;20.80;56.00;;;;;;491280;241;2984;-44
2021/06/18 01:45:10;;;;;;;;;;;20.80;56.10;;;;;;491332;241;1106;-44
2021/06/18 01:47:11;;;;;;;;;;;20.80;56.00;;;;;;491259;241;1211;-45
2021/06/18 01:49:13;;;;;;;;;;;20.80;56.00;;;;;;491583;241;1041;-44
2021/06/18 01:51:14;;;;;;;;;;;20.80;56.00;;;;;;491742;241;1154;-44
2021/06/18 01:53:15;;;;;;;;;;;20.70;56.00;;;;;;491756;241;1147;-44
2021/06/18 01:55:17;;;;;;;;;;;20.80;56.00;;;;;;491340;241;1360;-44
2021/06/18 01:57:20;;;;;;;;;;;20.80;56.00;;;;;;491663;241;2457;-44
2021/06/18 01:59:19;;;;;;;;;;;20.80;55.90;;;;;;491276;241;1519;-44
2021/06/18 02:01:21;;;;;;;;;;;20.80;56.00;;;;;;491485;241;1056;-44
2021/06/18 02:03:22;;;;;;;;;;;20.70;56.00;;;;;;491325;241;1029;-44
2021/06/18 02:05:23;;;;;;;;;;;20.80;56.00;;;;;;491269;241;1194;-44
2021/06/18 02:07:25;;;;;;;;;;;20.70;56.00;;;;;;491685;241;1029;-44
2021/06/18 02:09:26;;;;;;;;;;;20.80;56.00;;;;;;491640;241;2536;-44
2021/06/18 02:11:27;;;;;;;;;;;20.80;56.00;;;;;;491258;241;1162;-44
2021/06/18 02:13:29;;;;;;;;;;;20.80;56.00;;;;;;491323;241;1006;-44
2021/06/18 02:15:30;;;;;;;;;;;20.70;56.00;;;;;;491241;241;1026;-44
2021/06/18 02:17:31;;;;;;;;;;;20.80;56.00;;;;;;491647;241;2208;-44
2021/06/18 02:19:33;;;;;;;;;;;20.80;56.00;;;;;;491286;241;1045;-44
2021/06/18 02:21:34;;;;;;;;;;;20.80;56.00;;;;;;491574;241;1251;-44
2021/06/18 02:23:35;;;;;;;;;;;20.80;56.00;;;;;;491730;241;1089;-44
2021/06/18 02:25:37;;;;;;;;;;;20.70;56.00;;;;;;491639;241;1314;-45
2021/06/18 02:27:38;;;;;;;;;;;20.70;56.00;;;;;;491527;241;1169;-44
2021/06/18 02:29:40;;;;;;;;;;;20.80;56.00;;;;;;491779;241;1067;-44
2021/06/18 02:31:43;;;;;;;;;;;20.80;56.00;;;;;;491447;241;1167;-44
2021/06/18 02:33:42;;;;;;;;;;;20.80;56.00;;;;;;491264;241;2045;-44
2021/06/18 02:35:44;;;;;;;;;;;20.80;56.10;;;;;;491457;241;1211;-44
2021/06/18 02:37:45;;;;;;;;;;;20.70;56.00;;;;;;491229;241;2196;-44
2021/06/18 02:39:48;;;;;;;;;;;20.80;56.00;;;;;;491292;241;1114;-44
2021/06/18 02:41:49;;;;;;;;;;;20.80;56.00;;;;;;491375;241;1991;-44
2021/06/18 02:43:50;;;;;;;;;;;20.80;56.00;;;;;;491260;241;1089;-44
2021/06/18 02:45:51;;;;;;;;;;;20.80;56.00;;;;;;491240;241;1148;-44
2021/06/18 02:47:53;;;;;;;;;;;20.80;56.00;;;;;;491228;241;1057;-44
2021/06/18 02:49:54;;;;;;;;;;;20.80;56.00;;;;;;491485;241;1070;-44
2021/06/18 02:51:55;;;;;;;;;;;20.80;56.10;;;;;;491443;241;1267;-44
2021/06/18 02:53:57;;;;;;;;;;;20.80;56.00;;;;;;491228;241;1104;-44
2021/06/18 02:55:58;;;;;;;;;;;20.80;56.00;;;;;;491286;241;1335;-44
2021/06/18 02:57:59;;;;;;;;;;;20.80;56.00;;;;;;491406;241;2191;-44
2021/06/18 03:00:01;;;;;;;;;;;20.80;56.00;;;;;;491254;241;1071;-44
2021/06/18 03:02:02;;;;;;;;;;;20.80;56.00;;;;;;491193;241;1272;-44
2021/06/18 03:04:03;;;;;;;;;;;20.70;56.00;;;;;;491739;241;1091;-44
2021/06/18 03:06:05;;;;;;;;;;;20.70;56.10;;;;;;491758;241;1072;-44
2021/06/18 03:08:06;;;;;;;;;;;20.80;56.20;;;;;;491365;241;1202;-44
2021/06/18 03:10:07;;;;;;;;;;;20.80;56.00;;;;;;491790;241;1087;-44
2021/06/18 03:12:09;;;;;;;;;;;20.70;56.00;;;;;;491411;241;1274;-44
2021/06/18 03:14:10;;;;;;;;;;;20.80;56.10;;;;;;491361;241;1117;-44
2021/06/18 03:16:12;;;;;;;;;;;20.80;56.10;;;;;;491681;241;1495;-44
2021/06/18 03:18:13;;;;;;;;;;;20.80;56.10;;;;;;491238;241;2187;-44
2021/06/18 03:20:15;;;;;;;;;;;20.70;56.10;;;;;;491337;241;1040;-44
2021/06/18 03:22:16;;;;;;;;;;;20.80;56.10;;;;;;491772;241;1063;-44
2021/06/18 03:24:18;;;;;;;;;;;20.70;56.10;;;;;;491786;241;1046;-44
2021/06/18 03:26:19;;;;;;;;;;;20.80;56.20;;;;;;491304;241;1091;-44
2021/06/18 03:28:20;;;;;;;;;;;20.80;56.20;;;;;;491508;241;1054;-44
2021/06/18 03:30:22;;;;;;;;;;;20.70;56.10;;;;;;491286;241;1061;-44
2021/06/18 03:32:23;;;;;;;;;;;20.70;56.10;;;;;;491758;241;1046;-44
2021/06/18 03:34:24;;;;;;;;;;;20.70;56.10;;;;;;491401;241;1030;-44
2021/06/18 03:36:26;;;;;;;;;;;20.70;56.10;;;;;;491752;241;1216;-44
2021/06/18 03:38:27;;;;;;;;;;;20.70;56.10;;;;;;491430;241;2141;-44
2021/06/18 03:40:28;;;;;;;;;;;20.80;56.10;;;;;;491316;241;1286;-44
2021/06/18 03:42:29;;;;;;;;;;;20.80;56.10;;;;;;491331;241;1151;-44
2021/06/18 03:44:31;;;;;;;;;;;20.80;56.10;;;;;;491569;241;1063;-44
2021/06/18 03:46:32;;;;;;;;;;;20.70;56.10;;;;;;491727;241;1336;-44
2021/06/18 03:48:33;;;;;;;;;;;20.80;56.00;;;;;;491614;241;1036;-44
2021/06/18 03:50:35;;;;;;;;;;;20.80;56.10;;;;;;491360;241;1568;-44
2021/06/18 03:52:36;;;;;;;;;;;20.70;56.10;;;;;;491256;241;1275;-44
2021/06/18 03:54:37;;;;;;;;;;;20.70;56.10;;;;;;491291;241;1084;-44
2021/06/18 03:56:39;;;;;;;;;;;20.80;56.10;;;;;;491177;241;1423;-44
2021/06/18 03:58:40;;;;;;;;;;;20.80;56.20;;;;;;491322;241;2140;-44
2021/06/18 04:00:41;;;;;;;;;;;20.70;56.10;;;;;;491390;241;1150;-44
2021/06/18 04:02:43;;;;;;;;;;;20.70;56.00;;;;;;491200;241;1051;-44
2021/06/18 04:04:44;;;;;;;;;;;20.80;56.10;;;;;;491374;241;1065;-44
2021/06/18 04:06:45;;;;;;;;;;;20.80;56.00;;;;;;491648;241;1323;-44
2021/06/18 04:08:47;;;;;;;;;;;20.80;56.00;;;;;;491738;241;1039;-44
2021/06/18 04:10:48;;;;;;;;;;;20.80;56.00;;;;;;491288;241;1135;-44
2021/06/18 04:12:51;;;;;;;;;;;20.80;56.10;;;;;;491343;241;1541;-44
2021/06/18 04:14:52;;;;;;;;;;;20.80;56.10;;;;;;491416;241;2414;-44
2021/06/18 04:16:53;;;;;;;;;;;20.80;56.00;;;;;;491097;241;1269;-44
2021/06/18 04:18:54;;;;;;;;;;;20.70;56.10;;;;;;491400;241;2192;-44
2021/06/18 04:20:56;;;;;;;;;;;20.80;56.10;;;;;;491501;241;1260;-44
2021/06/18 04:22:57;;;;;;;;;;;20.80;56.10;;;;;;491618;241;1191;-44
2021/06/18 04:24:58;;;;;;;;;;;20.80;56.10;;;;;;491195;241;1046;-44
2021/06/18 04:27:00;;;;;;;;;;;20.80;56.10;;;;;;491061;241;1512;-44
2021/06/18 04:29:01;;;;;;;;;;;20.80;56.00;;;;;;491365;241;1148;-45
2021/06/18 04:31:02;;;;;;;;;;;20.80;56.00;;;;;;491505;241;1461;-44
2021/06/18 04:33:03;;;;;;;;;;;20.80;56.10;;;;;;491352;241;1087;-44
2021/06/18 04:35:05;;;;;;;;;;;20.80;56.10;;;;;;491503;241;1068;-44
2021/06/18 04:37:06;;;;;;;;;;;20.80;56.10;;;;;;491087;241;2197;-44
2021/06/18 04:39:07;;;;;;;;;;;20.80;56.10;;;;;;491479;241;1077;-44
2021/06/18 04:41:09;;;;;;;;;;;20.80;56.10;;;;;;491262;241;1380;-44
2021/06/18 04:43:10;;;;;;;;;;;20.80;56.10;;;;;;491293;241;1124;-44
2021/06/18 04:45:13;;;;;;;;;;;20.80;56.10;;;;;;491607;241;1082;-44
2021/06/18 04:47:14;;;;;;;;;;;20.80;56.10;;;;;;491035;241;1525;-44
2021/06/18 04:49:15;;;;;;;;;;;20.80;56.10;;;;;;491088;241;1105;-44
2021/06/18 04:51:16;;;;;;;;;;;20.80;56.10;;;;;;491199;241;1190;-44
2021/06/18 04:53:18;;;;;;;;;;;20.80;56.10;;;;;;491484;241;1104;-44
2021/06/18 04:55:19;;;;;;;;;;;20.80;56.10;;;;;;491157;241;1217;-44
2021/06/18 04:57:20;;;;;;;;;;;20.80;56.10;;;;;;491087;241;2188;-44
2021/06/18 04:59:21;;;;;;;;;;;20.80;56.10;;;;;;491093;241;1085;-44
2021/06/18 05:01:23;;;;;;;;;;;20.80;56.10;;;;;;491212;241;1340;-45
2021/06/18 05:03:24;;;;;;;;;;;20.80;56.10;;;;;;491163;241;1201;-44
2021/06/18 05:05:25;;;;;;;;;;;20.70;56.10;;;;;;491529;241;1221;-44
2021/06/18 05:07:27;;;;;;;;;;;20.80;56.10;;;;;;491383;241;1132;-44
2021/06/18 05:09:28;;;;;;;;;;;20.80;56.10;;;;;;491035;241;1207;-44
2021/06/18 05:11:29;;;;;;;;;;;20.80;56.00;;;;;;491016;241;1225;-44
2021/06/18 05:13:31;;;;;;;;;;;20.80;56.00;;;;;;491240;241;1136;-44
2021/06/18 05:15:32;;;;;;;;;;;20.80;56.00;;;;;;490990;241;1130;-44
2021/06/18 05:17:34;;;;;;;;;;;20.80;56.10;;;;;;491143;241;2180;-44
2021/06/18 05:19:35;;;;;;;;;;;20.80;56.10;;;;;;491332;241;1119;-44
2021/06/18 05:21:36;;;;;;;;;;;20.80;56.00;;;;;;490952;241;1692;-44
2021/06/18 05:23:38;;;;;;;;;;;20.80;56.00;;;;;;491191;241;1160;-44
2021/06/18 05:25:39;;;;;;;;;;;20.80;56.00;;;;;;490942;241;1073;-44
2021/06/18 05:27:40;;;;;;;;;;;20.80;56.00;;;;;;491191;241;1249;-44
2021/06/18 05:29:42;;;;;;;;;;;20.80;56.10;;;;;;491068;241;1133;-44
2021/06/18 05:31:43;;;;;;;;;;;20.80;56.10;;;;;;491020;241;1225;-44
2021/06/18 05:33:44;;;;;;;;;;;20.80;56.10;;;;;;491094;241;1122;-44
2021/06/18 05:35:46;;;;;;;;;;;20.80;56.10;;;;;;490820;241;1134;-44
2021/06/18 05:37:47;;;;;;;;;;;20.80;56.10;;;;;;491105;241;2145;-44
2021/06/18 05:39:48;;;;;;;;;;;20.70;56.10;;;;;;490953;241;1263;-44
2021/06/18 05:41:50;;;;;;;;;;;20.80;56.10;;;;;;490950;241;1260;-44
2021/06/18 05:43:52;;;;;;;;;;;20.80;56.10;;;;;;491149;241;1198;-44
2021/06/18 05:45:52;;;;;;;;;;;20.80;56.10;;;;;;490889;241;2653;-44
2021/06/18 05:47:54;;;;;;;;;;;20.80;56.10;;;;;;491071;241;1134;-44
2021/06/18 05:49:55;;;;;;;;;;;20.80;56.10;;;;;;490811;241;1135;-44
2021/06/18 05:51:56;;;;;;;;;;;20.80;56.10;;;;;;490834;241;1223;-44
2021/06/18 05:53:58;;;;;;;;;;;20.80;56.10;;;;;;491074;241;1115;-44
2021/06/18 05:55:59;;;;;;;;;;;20.80;56.10;;;;;;490900;241;1101;-44
2021/06/18 05:58:00;;;;;;;;;;;20.80;56.10;;;;;;490836;241;2300;-44
2021/06/18 06:00:01;;;;;;;;;;;20.80;56.10;;;;;;490734;241;1225;-44
2021/06/18 06:02:03;;;;;;;;;;;20.80;56.10;;;;;;490632;241;1735;-44
2021/06/18 06:04:04;;;;;;;;;;;20.80;56.10;;;;;;490947;241;1149;-45
2021/06/18 06:06:06;;;;;;;;;;;20.80;56.00;;;;;;490750;241;1204;-44
2021/06/18 06:08:07;;;;;;;;;;;20.80;56.00;;;;;;490799;241;1404;-44
2021/06/18 06:10:09;;;;;;;;;;;20.90;56.00;;;;;;490760;241;1081;-44
2021/06/18 06:12:10;;;;;;;;;;;20.90;56.00;;;;;;490759;241;1156;-44
2021/06/18 06:14:16;;;;;;;;;;;20.90;56.00;;;;;;490928;241;1141;-44
2021/06/18 06:16:13;;;;;;;;;;;20.90;56.00;;;;;;490691;241;1805;-44
2021/06/18 06:18:15;;;;;;;;;;;20.90;56.00;;;;;;491100;241;2137;-44
2021/06/18 06:20:16;;;;;;;;;;;20.90;56.00;;;;;;490760;241;1217;-44
2021/06/18 06:22:18;;;;;;;;;;;20.90;55.90;;;;;;490919;241;1224;-44
2021/06/18 06:24:18;;;;;;;;;;;20.90;55.90;;;;;;490776;241;1092;-45
2021/06/18 06:26:20;;;;;;;;;;;20.90;55.90;;;;;;490795;241;1352;-44
2021/06/18 06:28:21;;;;;;;;;;;20.90;55.90;;;;;;490777;241;1103;-44
2021/06/18 06:30:22;;;;;;;;;;;20.90;55.90;;;;;;490984;241;1180;-44
2021/06/18 06:32:24;;;;;;;;;;;20.90;55.80;;;;;;490826;241;1163;-44
2021/06/18 06:34:25;;;;;;;;;;;20.90;55.80;;;;;;490852;241;1167;-44
2021/06/18 06:36:27;;;;;;;;;;;20.90;55.90;;;;;;490843;241;1204;-44
2021/06/18 06:38:28;;;;;;;;;;;20.90;55.90;;;;;;490683;241;2180;-44
2021/06/18 06:40:29;;;;;;;;;;;20.90;55.80;;;;;;490662;241;1286;-45
2021/06/18 06:42:31;;;;;;;;;;;21.00;55.90;;;;;;491124;241;1707;-44
2021/06/18 06:44:32;;;;;;;;;;;21.00;55.90;;;;;;490830;241;1180;-44
2021/06/18 06:46:33;;;;;;;;;;;21.00;55.90;;;;;;490774;241;1198;-44
2021/06/18 06:48:35;;;;;;;;;;;21.00;55.90;;;;;;490790;241;1129;-44
2021/06/18 06:50:36;;;;;;;;;;;21.00;55.90;;;;;;490752;241;1124;-44
2021/06/18 06:52:38;;;;;;;;;;;21.00;55.90;;;;;;490630;241;1229;-44
2021/06/18 06:54:39;;;;;;;;;;;21.00;55.80;;;;;;490751;241;1136;-44
2021/06/18 06:56:40;;;;;;;;;;;21.00;55.80;;;;;;490608;241;2442;-45
2021/06/18 06:58:42;;;;;;;;;;;21.00;55.80;;;;;;490630;241;2195;-44
2021/06/18 07:00:44;;;;;;;;;;;21.00;55.70;;;;;;490723;241;1285;-44
2021/06/18 07:02:45;;;;;;;;;;;21.00;55.80;;;;;;490709;241;1096;-44
2021/06/18 07:04:46;;;;;;;;;;;21.00;55.70;;;;;;490693;241;1189;-44
2021/06/18 07:06:48;;;;;;;;;;;21.00;55.80;;;;;;490692;241;1233;-44
2021/06/18 07:08:49;;;;;;;;;;;21.00;55.70;;;;;;490701;241;1217;-44
2021/06/18 07:10:51;;;;;;;;;;;21.00;55.80;;;;;;490406;241;1306;-44
2021/06/18 07:12:52;;;;;;;;;;;21.00;55.70;;;;;;490546;241;1129;-44
2021/06/18 07:14:55;;;;;;;;;;;21.00;55.70;;;;;;490628;241;1141;-44
2021/06/18 07:16:55;;;;;;;;;;;21.00;55.70;;;;;;490444;241;2127;-44
2021/06/18 07:18:56;;;;;;;;;;;21.10;55.70;;;;;;490591;241;2136;-44
2021/06/18 07:20:57;;;;;;;;;;;21.00;55.80;;;;;;490601;241;1112;-44
2021/06/18 07:22:59;;;;;;;;;;;21.00;55.70;;;;;;490594;241;1082;-44
2021/06/18 07:25:00;;;;;;;;;;;21.00;55.70;;;;;;490635;241;1177;-44
2021/06/18 07:27:01;;;;;;;;;;;21.10;55.70;;;;;;490474;241;1228;-44
2021/06/18 07:29:03;;;;;;;;;;;21.10;55.70;;;;;;490575;241;1172;-45
2021/06/18 07:31:04;;;;;;;;;;;21.10;55.60;;;;;;490465;241;1189;-44
2021/06/18 07:33:05;;;;;;;;;;;21.10;55.60;;;;;;490596;241;1154;-44
2021/06/18 07:35:07;;;;;;;;;;;21.10;55.60;;;;;;490471;241;1224;-45
2021/06/18 07:37:08;;;;;;;;;;;21.10;55.70;;;;;;490998;241;1181;-45
2021/06/18 07:39:09;;;;;;;;;;;21.10;55.70;;;;;;490537;241;2200;-44
2021/06/18 07:41:11;;;;;;;;;;;21.10;55.70;;;;;;490483;241;1314;-44
2021/06/18 07:43:12;;;;;;;;;;;21.10;55.70;;;;;;490504;241;1265;-44
2021/06/18 07:45:13;;;;;;;;;;;21.10;55.80;;;;;;490449;241;1261;-44
2021/06/18 07:47:15;;;;;;;;;;;21.10;55.80;;;;;;490422;241;1243;-44
2021/06/18 07:49:16;;;;;;;;;;;21.00;55.80;;;;;;491283;241;827;-44
2021/06/18 07:51:17;;;;;;;;;;;21.00;55.90;;;;;;491200;241;1235;-44
2021/06/18 07:53:18;;;;;;;;;;;21.00;55.90;;;;;;491143;241;1117;-44
2021/06/18 07:55:21;;;;;;;;;;;21.00;55.90;;;;;;489926;241;1401;-44
2021/06/18 07:57:21;;;;;;;;;;;21.00;55.90;;;;;;490535;241;2129;-44
2021/06/18 07:59:22;;;;;;;;;;;21.00;56.00;;;;;;490516;241;2191;-44
2021/06/18 08:01:24;;;;;;;;;;;21.00;56.00;;;;;;490436;241;1223;-44
2021/06/18 08:03:25;;;;;;;;;;;21.00;56.00;;;;;;490446;241;1113;-44
2021/06/18 08:05:26;;;;;;;;;;;21.00;56.00;;;;;;490503;241;1302;-44
2021/06/18 08:07:28;;;;;;;;;;;21.00;56.10;;;;;;490650;241;1153;-44
2021/06/18 08:09:29;;;;;;;;;;;20.90;56.00;;;;;;490549;241;1147;-44
2021/06/18 08:11:30;;;;;;;;;;;20.90;56.00;;;;;;490475;241;1306;-44
2021/06/18 08:13:32;;;;;;;;;;;20.90;56.10;;;;;;490510;241;1515;-44
2021/06/18 08:15:33;;;;;;;;;;;20.90;56.10;;;;;;490423;241;1225;-45
2021/06/18 08:17:34;;;;;;;;;;;20.90;56.10;;;;;;490778;241;1182;-44
2021/06/18 08:19:36;;;;;;;;;;;20.90;56.10;;;;;;490504;241;2189;-44
2021/06/18 08:21:37;;;;;;;;;;;20.90;56.10;;;;;;490658;241;1410;-44
2021/06/18 08:23:38;;;;;;;;;;;20.90;56.10;;;;;;490735;241;1225;-45
2021/06/18 08:25:40;;;;;;;;;;;20.90;56.10;;;;;;490186;241;1358;-44
2021/06/18 08:27:41;;;;;;;;;;;20.90;56.10;;;;;;490589;241;1169;-44
2021/06/18 08:29:42;;;;;;;;;;;20.90;56.10;;;;;;490591;241;1105;-44
2021/06/18 08:31:44;;;;;;;;;;;20.90;56.10;;;;;;490867;241;1176;-44
2021/06/18 08:33:46;;;;;;;;;;;20.90;56.10;;;;;;490804;241;1130;-44
2021/06/18 08:35:47;;;;;;;;;;;20.90;56.10;;;;;;490931;241;2194;-44
2021/06/18 08:37:48;;;;;;;;;;;20.90;56.10;;;;;;490605;241;1258;-44
2021/06/18 08:39:49;;;;;;;;;;;20.90;56.10;;;;;;490344;241;2192;-44
2021/06/18 08:41:51;;;;;;;;;;;20.90;56.20;;;;;;490456;241;1310;-44
2021/06/18 08:43:52;;;;;;;;;;;20.90;56.20;;;;;;490645;241;1078;-44
2021/06/18 08:45:53;;;;;;;;;;;20.90;56.20;;;;;;490510;241;1352;-44
2021/06/18 08:47:55;;;;;;;;;;;20.90;56.20;;;;;;490708;241;1175;-44
2021/06/18 08:49:56;;;;;;;;;;;20.90;56.20;;;;;;490335;241;1081;-44
2021/06/18 08:51:57;;;;;;;;;;;20.90;56.20;;;;;;490649;241;1545;-44
2021/06/18 08:53:58;;;;;;;;;;;20.90;56.20;;;;;;491331;241;1356;-44
2021/06/18 08:56:00;;;;;;;;;;;20.90;56.20;;;;;;491178;241;1324;-44
2021/06/18 08:58:03;;;;;;;;;;;20.90;56.20;;;;;;490369;241;2066;-44
2021/06/18 09:00:03;;;;;;;;;;;20.90;56.20;;;;;;489736;241;2219;-44
2021/06/18 09:02:04;;;;;;;;;;;20.90;56.20;;;;;;490298;241;1236;-44
2021/06/18 09:04:05;;;;;;;;;;;20.90;56.20;;;;;;490423;241;1125;-44
2021/06/18 09:06:07;;;;;;;;;;;20.90;56.20;;;;;;490452;241;1425;-44
2021/06/18 09:08:08;;;;;;;;;;;20.90;56.20;;;;;;490464;241;1267;-44
2021/06/18 09:10:09;;;;;;;;;;;20.90;56.20;;;;;;490764;241;1164;-44
2021/06/18 09:12:12;;;;;;;;;;;20.90;56.20;;;;;;490583;241;1287;-44
2021/06/18 09:14:12;;;;;;;;;;;20.90;56.20;;;;;;490751;241;1072;-44
2021/06/18 09:16:14;;;;;;;;;;;20.90;56.20;;;;;;489746;241;1305;-44
2021/06/18 09:18:15;;;;;;;;;;;20.90;56.20;;;;;;490558;241;1120;-44
2021/06/18 09:20:17;;;;;;;;;;;20.90;56.20;;;;;;490579;241;2130;-44
2021/06/18 09:22:18;;;;;;;;;;;20.90;56.20;;;;;;490756;241;1360;-44
2021/06/18 09:24:19;;;;;;;;;;;20.90;56.20;;;;;;490579;241;1267;-44
2021/06/18 09:26:21;;;;;;;;;;;20.90;56.20;;;;;;490550;241;1389;-44
2021/06/18 09:28:22;;;;;;;;;;;20.90;56.20;;;;;;490472;241;1197;-44
2021/06/18 09:30:25;;;;;;;;;;;20.90;56.20;;;;;;490382;241;1078;-44
2021/06/18 09:32:25;;;;;;;;;;;20.90;56.20;;;;;;490229;241;1913;-44
2021/06/18 09:34:26;;;;;;;;;;;20.90;56.20;;;;;;490388;241;1107;-44
2021/06/18 09:36:27;;;;;;;;;;;20.80;56.20;;;;;;490316;241;1243;-44
2021/06/18 09:38:29;;;;;;;;;;;20.90;56.20;;;;;;490332;241;1178;-44
2021/06/18 09:40:30;;;;;;;;;;;20.80;56.20;;;;;;490316;241;2192;-44
2021/06/18 09:42:31;;;;;;;;;;;20.80;56.20;;;;;;491125;241;1289;-44
2021/06/18 09:44:33;;;;;;;;;;;20.90;56.20;;;;;;491281;241;879;-44
2021/06/18 09:46:34;;;;;;;;;;;20.80;56.20;;;;;;490986;241;1252;-44
2021/06/18 09:48:36;;;;;;;;;;;20.80;56.10;;;;;;490738;241;1098;-44
2021/06/18 09:50:39;;;;;;;;;;;20.80;56.20;;;;;;490349;241;1412;-44
2021/06/18 09:52:39;;;;;;;;;;;20.80;56.30;;;;;;490748;241;2057;-44
2021/06/18 09:54:42;;;;;;;;;;;20.80;56.30;;;;;;490852;241;2059;-44
2021/06/18 09:56:42;;;;;;;;;;;20.90;56.30;;;;;;490712;241;2165;-44
2021/06/18 09:58:44;;;;;;;;;;;20.80;56.20;;;;;;491304;241;874;-45
2021/06/18 10:00:44;;;;;;;;;;;20.80;56.20;;;;;;490764;241;2240;-44
2021/06/18 10:02:46;;;;;;;;;;;20.80;56.20;;;;;;490471;241;1183;-44
2021/06/18 10:04:49;;;;;;;;;;;20.80;56.20;;;;;;490354;241;1135;-44
2021/06/18 10:06:50;;;;;;;;;;;20.80;56.30;;;;;;490199;241;1224;-44
2021/06/18 10:08:51;;;;;;;;;;;20.80;56.30;;;;;;490367;241;1207;-44
2021/06/18 10:10:52;;;;;;;;;;;20.80;56.30;;;;;;490320;241;1310;-44
2021/06/18 10:12:54;;;;;;;;;;;20.80;56.30;;;;;;490545;241;1175;-44
2021/06/18 10:14:55;;;;;;;;;;;20.80;56.30;;;;;;490525;241;1111;-44
2021/06/18 10:16:57;;;;;;;;;;;20.80;56.30;;;;;;490431;241;1364;-44
2021/06/18 10:18:58;;;;;;;;;;;20.80;56.30;;;;;;490537;241;1124;-44
2021/06/18 10:20:59;;;;;;;;;;;20.80;56.30;;;;;;490588;241;2188;-44
2021/06/18 10:23:01;;;;;;;;;;;20.80;56.30;;;;;;490497;241;1057;-44
2021/06/18 10:25:04;;;;;;;;;;;20.80;56.30;;;;;;490572;241;1300;-44
2021/06/18 10:27:04;;;;;;;;;;;20.80;56.30;;;;;;490389;241;2154;-44
2021/06/18 10:29:06;;;;;;;;;;;20.80;56.30;;;;;;490424;241;1086;-44
2021/06/18 10:31:07;;;;;;;;;;;20.80;56.30;;;;;;490468;241;1243;-44
2021/06/18 10:37:49;;;;;;;;;;;20.80;56.30;;;;;;482753;240;3634;-47
2021/06/18 10:39:51;;;;;;;;;;;20.80;56.30;;;;;;485096;245;2186;-46
2021/06/18 10:41:53;;;;;;;;;;;20.80;56.30;;;;;;485060;245;1267;-46
2021/06/18 10:43:55;;;;;;;;;;;20.80;56.30;;;;;;485134;245;2092;-44
2021/06/18 10:45:55;;;;;;;;;;;20.80;56.20;;;;;;484951;245;2049;-44
2021/06/18 10:47:57;;;;;;;;;;;20.80;56.20;;;;;;484997;245;1113;-44
2021/06/18 10:49:59;;;;;;;;;;;20.80;56.20;;;;;;485120;245;1149;-43
2021/06/18 10:52:00;;;;;;;;;;;20.80;56.30;;;;;;484807;245;1222;-44
2021/06/18 10:54:02;;;;;;;;;;;20.80;56.30;;;;;;484813;245;1108;-44
2021/06/18 10:56:03;;;;;;;;;;;20.80;56.30;;;;;;485524;245;1148;-43
2021/06/18 10:58:05;;;;;;;;;;;20.80;56.10;;;;;;485727;245;1033;-44
2021/06/18 11:00:06;;;;;;;;;;;20.80;56.30;;;;;;485260;245;2389;-43
2021/06/18 11:02:07;;;;;;;;;;;20.80;56.20;;;;;;485242;245;1331;-43
2021/06/18 11:04:09;;;;;;;;;;;20.80;56.10;;;;;;485165;245;839;-43
2021/06/18 11:06:10;;;;;;;;;;;20.80;56.20;;;;;;485474;245;1237;-43
2021/06/18 11:08:11;;;;;;;;;;;20.80;56.20;;;;;;484954;245;1078;-44
2021/06/18 11:10:15;;;;;;;;;;;20.80;56.20;;;;;;485100;245;1117;-43
2021/06/18 11:12:14;;;;;;;;;;;20.80;56.20;;;;;;484806;245;2273;-43
2021/06/18 11:14:15;;;;;;;;;;;20.80;56.20;;;;;;485048;245;1084;-44
2021/06/18 11:16:17;;;;;;;;;;;20.80;56.20;;;;;;485018;245;1321;-44
2021/06/18 11:18:18;;;;;;;;;;;20.80;56.20;;;;;;485011;245;1244;-44
2021/06/18 11:20:19;;;;;;;;;;;20.80;56.20;;;;;;484910;245;2175;-43
2021/06/18 11:22:21;;;;;;;;;;;20.80;56.20;;;;;;484859;245;1232;-43
2021/06/18 11:24:22;;;;;;;;;;;20.80;56.20;;;;;;484650;245;1136;-43
2021/06/18 11:26:23;;;;;;;;;;;20.90;56.20;;;;;;485071;245;1410;-44
2021/06/18 11:28:26;;;;;;;;;;;20.80;56.20;;;;;;484959;245;1157;-44
2021/06/18 11:30:26;;;;;;;;;;;20.80;56.20;;;;;;484803;245;1875;-43
2021/06/18 11:32:27;;;;;;;;;;;20.80;56.20;;;;;;485037;245;1143;-44
2021/06/18 11:34:29;;;;;;;;;;;20.80;56.20;;;;;;485099;245;1100;-43
2021/06/18 11:36:32;;;;;;;;;;;20.80;56.20;;;;;;484877;245;1416;-43
2021/06/18 11:38:34;;;;;;;;;;;20.80;56.20;;;;;;484799;245;1394;-43
2021/06/18 11:40:34;;;;;;;;;;;20.80;56.10;;;;;;484787;242;2741;-44
2021/06/18 11:42:35;;;;;;;;;;;20.80;56.10;;;;;;485003;245;1206;-44
2021/06/18 11:44:36;;;;;;;;;;;20.90;56.00;;;;;;485098;245;1116;-43
2021/06/18 11:46:38;;;;;;;;;;;20.80;56.10;;;;;;485013;245;1213;-43
2021/06/18 11:48:40;;;;;;;;;;;20.80;56.20;;;;;;485243;245;1177;-44
2021/06/18 11:50:42;;;;;;;;;;;20.80;56.10;;;;;;484884;245;2404;-44
2021/06/18 11:52:42;;;;;;;;;;;20.80;56.20;;;;;;484964;245;1527;-44
2021/06/18 11:54:43;;;;;;;;;;;20.80;56.20;;;;;;485201;245;1142;-43
2021/06/18 11:56:44;;;;;;;;;;;20.80;56.20;;;;;;484886;245;1269;-44
2021/06/18 11:58:46;;;;;;;;;;;20.80;56.10;;;;;;484946;245;1095;-43
2021/06/18 12:00:47;;;;;;;;;;;20.90;56.10;;;;;;484760;245;2203;-44